Startpagina
METAR-TAF:

METAR-TAF

Vliegvelden :

Luchthaven Irkoetsk

Irkoetsk, Rusland

breedte: 52-16N, lengte: 104-19E, hoogte: 513 m

Actueel weer

Dit bericht is 36 minuten geleden gemaakt, om 05:00 UTC
Wind 12 kt uit het noordwesten
Temperatuur 6°C
Vochtigheid 93%
Druk 1022 hPa
Zicht 10 km of meer
Geheel bewolkt op 1100 ft, Cumulonimbus.
lichte regenbuien

METAR: UIII 190500Z 32006MPS 9999 -SHRA OVC011CB 06/05 Q1022 R30/290150 NOSIG RMK QFE722/0962

Tijdstip: 13:36 (05:36 UTC)

Verwachting

Dit bericht is 36 minuten geleden gemaakt, om 05:00 UTC
Verwachting geldig van 19 om 06 UTC tot 20 om 06 UTC
Wind 14 kt uit het noordwesten
Zicht 10 km of meer
Geheel bewolkt op 1100 ft, Cumulonimbus.
lichte regenbuien
Tijdelijke
van 19 om 06 UTC tot 20 om 06 UTC
Wind 19 kt uit het noordwesten met uitschieters tot 29 kt
Geheel bewolkt op 700 ft, Cumulonimbus.

TAF: UIII 190500Z 1906/2006 32007MPS 9999 -SHRA OVC011CB TEMPO 1906/2006 32010G15MPS OVC007CB

Waarnemingen en weersverwachtingen van meer dan 4000 vliegvelden (METAR en TAF).

De beschikbare stations zijn de gele en rode punten op de kaart.

Ga met uw muis naar het station om de naam te zien.

Klik dan om waarnemingen en weersverwachtingen te zien.

kaart wijzigen: klik op de groene knoppen met een zwart kruis om in te zoomen, op de groene knop met een streepje om uit te zoomen of op de groene pijlen voor aangrenzende kaarten.


METAR-TAF: